createdAt,value
2022-12-11T00:00:12.268Z,2.77
2022-12-11T00:02:39.263Z,2.82
2022-12-11T00:05:06.471Z,2.86
2022-12-11T00:07:33.369Z,2.88
2022-12-11T00:10:01.150Z,2.87
2022-12-11T00:12:31.743Z,2.88
2022-12-11T00:14:58.749Z,2.89
2022-12-11T00:17:25.715Z,2.89
2022-12-11T00:19:52.573Z,2.88
2022-12-11T00:22:19.549Z,2.86
2022-12-11T00:24:46.422Z,2.87
2022-12-11T00:27:13.380Z,2.92
2022-12-11T00:29:40.383Z,2.88
2022-12-11T00:32:07.304Z,2.97
2022-12-11T00:34:34.562Z,2.99
2022-12-11T00:37:02.576Z,2.99
2022-12-11T00:39:29.544Z,2.97
2022-12-11T00:41:56.659Z,2.98
2022-12-11T00:44:23.767Z,3.00
2022-12-11T00:46:50.691Z,3.00
2022-12-11T00:49:17.592Z,3.00
2022-12-11T00:51:44.540Z,2.92
2022-12-11T00:54:11.546Z,2.97
2022-12-11T00:56:38.420Z,2.81
2022-12-11T00:59:05.440Z,2.92
2022-12-11T01:01:32.736Z,2.86
2022-12-11T01:03:59.798Z,2.82
2022-12-11T01:06:28.275Z,2.81
2022-12-11T01:09:14.856Z,2.65
2022-12-11T01:11:43.408Z,2.79
2022-12-11T01:14:13.567Z,2.77
2022-12-11T01:16:40.611Z,2.79
2022-12-11T01:19:07.568Z,2.80
2022-12-11T01:21:34.459Z,2.80
2022-12-11T01:24:01.480Z,2.75
2022-12-11T01:26:28.730Z,2.79
2022-12-11T01:28:55.637Z,2.81
2022-12-11T01:31:22.593Z,2.80
2022-12-11T01:33:49.702Z,2.82
2022-12-11T01:36:21.632Z,2.76
2022-12-11T01:38:49.645Z,2.71
2022-12-11T01:41:18.183Z,2.71
2022-12-11T01:44:05.839Z,2.69
2022-12-11T01:46:35.699Z,2.74
2022-12-11T01:49:07.519Z,2.75
2022-12-11T01:51:40.903Z,2.71
2022-12-11T01:54:11.779Z,2.69
2022-12-11T01:56:41.501Z,2.67
2022-12-11T01:59:10.301Z,2.72
2022-12-11T02:01:42.554Z,2.76
2022-12-11T02:04:11.134Z,2.72
2022-12-11T02:06:41.572Z,2.72
2022-12-11T02:09:12.962Z,2.69
2022-12-11T02:11:51.869Z,2.71
2022-12-11T02:14:48.083Z,2.65
2022-12-11T02:17:21.979Z,2.60
2022-12-11T02:20:04.164Z,2.62
2022-12-11T02:22:51.837Z,2.59
2022-12-11T02:25:27.489Z,2.62
2022-12-11T02:28:19.451Z,2.67
2022-12-11T02:31:08.683Z,2.45
2022-12-11T02:33:56.964Z,2.59
2022-12-11T02:36:26.915Z,2.57
2022-12-11T02:38:57.116Z,2.57
2022-12-11T02:41:26.270Z,2.56
2022-12-11T02:43:57.240Z,2.49
2022-12-11T02:46:26.314Z,2.41
2022-12-11T02:48:54.795Z,2.49
2022-12-11T02:51:28.296Z,2.48
2022-12-11T02:53:58.352Z,2.52
2022-12-11T02:56:38.394Z,2.47
2022-12-11T02:59:11.524Z,2.48
2022-12-11T03:01:38.646Z,2.48
2022-12-11T03:04:05.613Z,2.43
2022-12-11T03:06:37.101Z,2.35
2022-12-11T03:09:05.710Z,2.39
2022-12-11T03:11:32.665Z,2.43
2022-12-11T03:14:03.030Z,2.44
2022-12-11T03:16:36.476Z,2.40
2022-12-11T03:19:09.100Z,2.37
2022-12-11T03:21:58.863Z,2.36
2022-12-11T03:24:35.703Z,2.35
2022-12-11T03:27:10.991Z,2.38
2022-12-11T03:29:45.261Z,2.34
2022-12-11T03:32:23.247Z,2.35
2022-12-11T03:34:58.467Z,2.26
2022-12-11T03:37:29.153Z,2.34
2022-12-11T03:40:02.616Z,2.37
2022-12-11T03:42:31.984Z,2.33
2022-12-11T03:45:02.671Z,2.36
2022-12-11T03:47:32.442Z,2.38
2022-12-11T03:50:01.604Z,2.38
2022-12-11T03:52:32.598Z,2.38
2022-12-11T03:55:02.972Z,2.38
2022-12-11T03:57:33.952Z,2.30
2022-12-11T04:00:00.948Z,2.06
2022-12-11T04:02:28.166Z,2.28
2022-12-11T04:04:55.084Z,2.31
2022-12-11T04:07:22.146Z,2.22
2022-12-11T04:09:49.086Z,2.30
2022-12-11T04:12:15.979Z,2.30
2022-12-11T04:15:01.436Z,2.31
2022-12-11T04:17:55.156Z,2.32
2022-12-11T04:20:41.134Z,2.32
2022-12-11T04:23:33.073Z,2.30
2022-12-11T04:26:15.731Z,2.22
2022-12-11T04:28:44.359Z,2.27
2022-12-11T04:31:17.007Z,2.29
2022-12-11T04:33:44.269Z,2.23
2022-12-11T04:36:12.430Z,2.27
2022-12-11T04:38:39.451Z,2.24
2022-12-11T04:41:09.848Z,2.17
2022-12-11T04:43:37.399Z,2.23
2022-12-11T04:46:13.982Z,2.08
2022-12-11T04:48:41.570Z,2.16
2022-12-11T04:51:09.840Z,2.10
2022-12-11T04:53:37.350Z,2.17
2022-12-11T04:56:09.606Z,2.17
2022-12-11T04:58:36.781Z,2.14
2022-12-11T05:01:12.219Z,2.09
2022-12-11T05:03:40.443Z,2.08
2022-12-11T05:06:08.469Z,2.04
2022-12-11T05:08:37.200Z,2.02
2022-12-11T05:11:06.854Z,2.05
2022-12-11T05:13:34.415Z,1.98
2022-12-11T05:16:04.644Z,2.01
2022-12-11T05:18:31.611Z,1.92
2022-12-11T05:21:01.397Z,1.96
2022-12-11T05:23:28.950Z,1.93
2022-12-11T05:25:58.213Z,2.01
2022-12-11T05:28:26.756Z,2.04
2022-12-11T05:30:57.983Z,2.05
2022-12-11T05:33:25.700Z,2.08
2022-12-11T05:35:52.913Z,2.10
2022-12-11T05:38:20.470Z,2.11
2022-12-11T05:40:57.241Z,2.08
2022-12-11T05:43:24.067Z,2.03
2022-12-11T05:45:50.898Z,2.04
2022-12-11T05:48:17.832Z,1.91
2022-12-11T05:50:44.780Z,1.89
2022-12-11T05:53:12.004Z,1.88
2022-12-11T05:55:38.912Z,1.90
2022-12-11T05:58:05.966Z,1.89
2022-12-11T06:00:36.032Z,1.92
2022-12-11T06:03:03.346Z,1.80
2022-12-11T06:05:30.398Z,1.92
2022-12-11T06:07:57.389Z,1.94
2022-12-11T06:10:24.320Z,2.02
2022-12-11T06:12:51.148Z,1.98
2022-12-11T06:15:18.130Z,1.99
2022-12-11T06:17:45.034Z,2.00
2022-12-11T06:20:12.103Z,2.04
2022-12-11T06:22:39.027Z,2.07
2022-12-11T06:25:06.533Z,2.10
2022-12-11T06:27:33.568Z,2.00
2022-12-11T06:30:00.473Z,2.03
2022-12-11T06:32:27.678Z,2.09
2022-12-11T06:34:54.570Z,2.14
2022-12-11T06:37:21.629Z,2.15
2022-12-11T06:39:48.482Z,2.16
2022-12-11T06:42:16.610Z,2.21
2022-12-11T06:44:43.659Z,2.23
2022-12-11T06:47:10.797Z,2.15
2022-12-11T06:49:37.750Z,2.11
2022-12-11T06:52:07.132Z,2.09
2022-12-11T06:54:34.035Z,2.09
2022-12-11T06:57:00.956Z,2.09
2022-12-11T06:59:27.891Z,2.13
2022-12-11T07:01:54.820Z,2.14
2022-12-11T07:04:24.858Z,2.10
2022-12-11T07:06:52.082Z,2.09
2022-12-11T07:09:19.741Z,2.03
2022-12-11T07:11:46.665Z,2.12
2022-12-11T07:14:13.604Z,2.17
2022-12-11T07:16:40.595Z,2.19
2022-12-11T07:19:07.649Z,2.21
2022-12-11T07:21:35.343Z,2.22
2022-12-11T07:24:02.241Z,2.22
2022-12-11T07:26:29.842Z,2.19
2022-12-11T07:28:58.887Z,2.04
2022-12-11T07:31:29.748Z,2.12
2022-12-11T07:34:03.364Z,2.12
2022-12-11T07:36:31.459Z,2.12
2022-12-11T07:39:00.562Z,2.20
2022-12-11T07:41:31.835Z,2.15
2022-12-11T07:44:00.853Z,2.13
2022-12-11T07:46:29.748Z,2.15
2022-12-11T07:48:56.808Z,2.11
2022-12-11T07:51:29.346Z,2.17
2022-12-11T07:53:59.437Z,2.11
2022-12-11T07:56:28.146Z,1.97
2022-12-11T07:58:55.614Z,1.96
2022-12-11T08:01:24.505Z,1.83
2022-12-11T08:03:51.614Z,1.96
2022-12-11T08:06:21.666Z,1.98
2022-12-11T08:08:48.676Z,2.02
2022-12-11T08:11:15.796Z,2.08
2022-12-11T08:13:44.530Z,2.15
2022-12-11T08:16:14.499Z,2.17
2022-12-11T08:18:42.707Z,2.26
2022-12-11T08:21:12.852Z,2.19
2022-12-11T08:23:40.043Z,2.23
2022-12-11T08:26:09.600Z,2.26
2022-12-11T08:28:37.734Z,2.31
2022-12-11T08:31:06.800Z,2.34
2022-12-11T08:33:34.680Z,2.36
2022-12-11T08:36:07.161Z,2.39
2022-12-11T08:38:34.967Z,2.36
2022-12-11T08:41:29.143Z,2.41
2022-12-11T08:43:57.680Z,2.40
2022-12-11T08:46:32.635Z,2.33
2022-12-11T08:49:00.166Z,2.36
2022-12-11T08:51:30.533Z,2.32
2022-12-11T08:54:00.951Z,2.46
2022-12-11T08:56:28.840Z,2.49
2022-12-11T08:59:00.771Z,2.55
2022-12-11T09:01:28.258Z,2.46
2022-12-11T09:03:56.702Z,2.52
2022-12-11T09:06:26.344Z,2.54
2022-12-11T09:08:54.010Z,2.59
2022-12-11T09:11:23.856Z,2.61
2022-12-11T09:13:51.095Z,2.57
2022-12-11T09:16:20.427Z,2.63
2022-12-11T09:18:50.091Z,2.62
2022-12-11T09:21:20.037Z,2.54
2022-12-11T09:23:47.800Z,2.60
2022-12-11T09:26:17.463Z,2.65
2022-12-11T09:28:46.942Z,2.67
2022-12-11T09:31:17.841Z,2.71
2022-12-11T09:33:45.843Z,2.72
2022-12-11T09:36:13.301Z,2.60
2022-12-11T09:38:40.780Z,2.67
2022-12-11T09:41:49.684Z,2.69
2022-12-11T09:44:38.377Z,2.60
2022-12-11T09:47:17.821Z,2.66
2022-12-11T09:49:46.744Z,2.75
2022-12-11T09:52:34.975Z,2.75
2022-12-11T09:55:10.347Z,2.75
2022-12-11T09:58:08.153Z,2.72
2022-12-11T10:01:01.127Z,2.56
2022-12-11T10:03:47.809Z,2.45
2022-12-11T10:06:28.464Z,2.39
2022-12-11T10:09:11.923Z,2.34
2022-12-11T10:12:12.249Z,2.26
2022-12-11T10:14:58.096Z,2.15
2022-12-11T10:17:37.565Z,2.13
2022-12-11T10:20:39.531Z,2.19
2022-12-11T10:23:09.479Z,2.20
2022-12-11T10:25:40.616Z,2.19
2022-12-11T10:28:19.434Z,2.10
2022-12-11T10:31:01.560Z,2.04
2022-12-11T10:33:50.098Z,1.98
2022-12-11T10:36:25.297Z,1.95
2022-12-11T10:38:52.342Z,1.92
2022-12-11T10:41:41.976Z,1.91
2022-12-11T10:44:41.435Z,1.91
2022-12-11T10:47:18.367Z,1.81
2022-12-11T10:49:56.739Z,1.81
2022-12-11T10:52:27.833Z,1.88
2022-12-11T10:55:03.123Z,1.86
2022-12-11T10:57:34.630Z,1.85
2022-12-11T11:00:04.787Z,1.92
2022-12-11T11:02:40.566Z,1.85
2022-12-11T11:05:28.630Z,1.94
2022-12-11T11:08:19.855Z,1.96
2022-12-11T11:10:51.682Z,1.83
2022-12-11T11:13:22.050Z,1.94
2022-12-11T11:15:50.155Z,1.61
2022-12-11T11:18:26.655Z,1.87
2022-12-11T11:20:54.486Z,1.73
2022-12-11T11:23:23.161Z,1.68
2022-12-11T11:25:58.682Z,1.68
2022-12-11T11:28:29.707Z,1.74
2022-12-11T11:31:05.077Z,1.72
2022-12-11T11:33:34.543Z,1.70
2022-12-11T11:36:05.436Z,1.64
2022-12-11T11:38:41.184Z,1.57
2022-12-11T11:41:21.168Z,1.56
2022-12-11T11:44:05.066Z,1.58
2022-12-11T11:46:38.129Z,1.51
2022-12-11T11:49:32.676Z,1.39
2022-12-11T11:52:12.492Z,1.37
2022-12-11T11:54:57.678Z,1.38
2022-12-11T11:57:39.096Z,1.37
2022-12-11T12:00:26.480Z,1.37
2022-12-11T12:03:03.657Z,1.35
2022-12-11T12:05:53.907Z,1.23
2022-12-11T12:08:27.909Z,1.32
2022-12-11T12:11:06.262Z,1.35
2022-12-11T12:14:22.553Z,1.31
2022-12-11T12:17:18.548Z,1.33
2022-12-11T12:20:11.915Z,1.32
2022-12-11T12:22:54.258Z,1.31
2022-12-11T12:25:30.160Z,1.12
2022-12-11T12:28:22.848Z,0.94
2022-12-11T12:31:05.929Z,0.95
2022-12-11T12:34:01.531Z,1.02
2022-12-11T12:37:01.212Z,0.92
2022-12-11T12:39:52.064Z,0.82
2022-12-11T12:42:56.282Z,0.90
2022-12-11T12:45:32.228Z,0.83
2022-12-11T12:47:59.688Z,0.74
2022-12-11T12:50:40.598Z,0.84
2022-12-11T12:53:09.882Z,0.79
2022-12-11T12:55:37.180Z,0.79
2022-12-11T12:58:06.762Z,0.86
2022-12-11T13:00:33.800Z,0.89
2022-12-11T13:03:14.971Z,0.85
2022-12-11T13:06:06.319Z,0.80
2022-12-11T13:08:47.458Z,0.78
2022-12-11T13:11:18.551Z,0.80
2022-12-11T13:14:28.196Z,0.72
2022-12-11T13:17:21.101Z,0.63
2022-12-11T13:20:03.387Z,0.61
2022-12-11T13:22:30.349Z,0.70
2022-12-11T13:25:04.307Z,0.71
2022-12-11T13:27:43.651Z,0.69
2022-12-11T13:30:16.619Z,0.65
2022-12-11T13:32:58.924Z,0.75
2022-12-11T13:35:26.659Z,0.74
2022-12-11T13:37:55.442Z,0.77
2022-12-11T13:40:28.869Z,0.72
2022-12-11T13:42:55.787Z,0.74
2022-12-11T13:45:28.433Z,0.78
2022-12-11T13:47:57.590Z,0.73
2022-12-11T13:50:30.621Z,0.64
2022-12-11T13:53:00.215Z,0.75
2022-12-11T13:55:34.227Z,0.74
2022-12-11T13:58:01.786Z,0.66
2022-12-11T14:00:32.256Z,0.68
2022-12-11T14:03:04.576Z,0.63
2022-12-11T14:05:31.797Z,0.66
2022-12-11T14:08:05.421Z,0.62
2022-12-11T14:10:33.068Z,0.62
2022-12-11T14:13:04.265Z,0.61
2022-12-11T14:15:33.775Z,0.60
2022-12-11T14:18:01.369Z,0.66
2022-12-11T14:20:31.132Z,0.63
2022-12-11T14:23:18.857Z,0.64
2022-12-11T14:25:58.833Z,0.37
2022-12-11T14:28:28.354Z,0.52
2022-12-11T14:30:59.354Z,0.57
2022-12-11T14:33:32.642Z,0.57
2022-12-11T14:36:01.534Z,0.62
2022-12-11T14:38:43.384Z,0.54
2022-12-11T14:41:38.508Z,0.50
2022-12-11T14:44:08.217Z,0.50
2022-12-11T14:46:44.004Z,0.53
2022-12-11T14:49:28.726Z,0.45
2022-12-11T14:51:58.582Z,0.56
2022-12-11T14:54:36.484Z,0.63
2022-12-11T14:57:06.718Z,0.64
2022-12-11T14:59:41.456Z,0.49
2022-12-11T15:02:23.462Z,0.55
2022-12-11T15:05:18.343Z,0.57
2022-12-11T15:08:12.672Z,0.53
2022-12-11T15:11:00.989Z,0.53
2022-12-11T15:13:28.436Z,0.46
2022-12-11T15:15:56.334Z,0.51
2022-12-11T15:18:27.178Z,0.46
2022-12-11T15:20:57.842Z,0.52
2022-12-11T15:23:24.840Z,0.40
2022-12-11T15:25:54.264Z,0.53
2022-12-11T15:28:35.276Z,0.48
2022-12-11T15:31:06.932Z,0.32
2022-12-11T15:33:34.851Z,0.37
2022-12-11T15:36:07.399Z,0.33
2022-12-11T15:38:35.735Z,0.33
2022-12-11T15:41:04.158Z,0.35
2022-12-11T15:43:36.196Z,0.42
2022-12-11T15:46:04.481Z,0.28
2022-12-11T15:48:31.471Z,0.45
2022-12-11T15:50:58.579Z,0.48
2022-12-11T15:53:25.554Z,0.48
2022-12-11T15:55:53.141Z,0.43
2022-12-11T15:58:23.288Z,0.45
2022-12-11T16:00:50.776Z,0.34
2022-12-11T16:03:19.688Z,0.38
2022-12-11T16:05:47.401Z,0.35
2022-12-11T16:08:17.297Z,0.34
2022-12-11T16:10:45.665Z,0.22
2022-12-11T16:13:13.525Z,0.26
2022-12-11T16:15:46.240Z,0.33
2022-12-11T16:18:16.572Z,0.41
2022-12-11T16:20:45.295Z,0.39
2022-12-11T16:23:13.398Z,0.33
2022-12-11T16:25:42.541Z,0.35
2022-12-11T16:28:11.768Z,0.41
2022-12-11T16:30:38.908Z,0.37
2022-12-11T16:33:12.005Z,0.42
2022-12-11T16:35:39.845Z,0.48
2022-12-11T16:38:07.936Z,0.44
2022-12-11T16:40:34.760Z,0.42
2022-12-11T16:43:03.770Z,0.42
2022-12-11T16:45:30.822Z,0.57
2022-12-11T16:47:57.780Z,0.63
2022-12-11T16:50:25.557Z,0.51
2022-12-11T16:52:52.478Z,0.50
2022-12-11T16:55:22.358Z,0.56
2022-12-11T16:57:49.547Z,0.59
2022-12-11T17:00:16.745Z,0.65
2022-12-11T17:02:43.806Z,0.62
2022-12-11T17:05:11.373Z,0.59
2022-12-11T17:07:38.735Z,0.57
2022-12-11T17:10:06.027Z,0.61
2022-12-11T17:12:33.046Z,0.66
2022-12-11T17:15:00.078Z,0.64
2022-12-11T17:17:27.244Z,0.67
2022-12-11T17:19:56.059Z,0.50
2022-12-11T17:22:23.056Z,0.57
2022-12-11T17:24:50.001Z,0.68
2022-12-11T17:27:17.048Z,0.72
2022-12-11T17:29:44.030Z,0.77
2022-12-11T17:32:11.543Z,0.69
2022-12-11T17:34:38.868Z,0.79
2022-12-11T17:37:06.530Z,0.89
2022-12-11T17:39:33.667Z,0.85
2022-12-11T17:42:00.848Z,0.86
2022-12-11T17:44:30.729Z,0.84
2022-12-11T17:46:59.045Z,0.91
2022-12-11T17:49:26.864Z,0.98
2022-12-11T17:51:55.442Z,1.00
2022-12-11T17:54:24.240Z,1.00
2022-12-11T17:56:51.702Z,1.02
2022-12-11T17:59:18.684Z,0.90
2022-12-11T18:01:46.081Z,1.02
2022-12-11T18:04:13.229Z,1.00
2022-12-11T18:06:40.268Z,1.01
2022-12-11T18:09:07.458Z,1.07
2022-12-11T18:11:34.898Z,1.13
2022-12-11T18:14:01.863Z,1.23
2022-12-11T18:16:32.915Z,1.26
2022-12-11T18:19:00.074Z,1.29
2022-12-11T18:21:34.247Z,1.25
2022-12-11T18:24:02.493Z,1.25
2022-12-11T18:26:29.444Z,1.26
2022-12-11T18:28:58.605Z,1.36
2022-12-11T18:31:25.651Z,1.31
2022-12-11T18:33:52.984Z,1.33
2022-12-11T18:36:21.431Z,1.38
2022-12-11T18:38:48.767Z,1.33
2022-12-11T18:41:18.036Z,1.44
2022-12-11T18:43:45.639Z,1.35
2022-12-11T18:46:16.336Z,1.50
2022-12-11T18:48:45.535Z,1.50
2022-12-11T18:51:15.672Z,1.43
2022-12-11T18:53:42.644Z,1.46
2022-12-11T18:56:13.356Z,1.37
2022-12-11T18:58:41.351Z,1.46
2022-12-11T19:01:11.101Z,1.57
2022-12-11T19:03:38.175Z,1.53
2022-12-11T19:06:11.054Z,1.57
2022-12-11T19:08:38.456Z,1.54
2022-12-11T19:11:05.880Z,1.53
2022-12-11T19:13:33.845Z,1.37
2022-12-11T19:16:01.697Z,1.50
2022-12-11T19:18:28.781Z,1.56
2022-12-11T19:21:06.435Z,1.63
2022-12-11T19:23:35.908Z,1.59
2022-12-11T19:26:03.135Z,1.65
2022-12-11T19:28:30.356Z,1.70
2022-12-11T19:30:57.317Z,1.70
2022-12-11T19:33:24.327Z,1.69
2022-12-11T19:36:10.923Z,1.62
2022-12-11T19:38:39.735Z,1.67
2022-12-11T19:41:08.710Z,1.68
2022-12-11T19:43:36.806Z,1.62
2022-12-11T19:46:06.150Z,1.56
2022-12-11T19:48:35.148Z,1.51
2022-12-11T19:51:09.817Z,1.43
2022-12-11T19:53:37.164Z,1.55
2022-12-11T19:56:05.574Z,1.60
2022-12-11T19:58:33.261Z,1.65
2022-12-11T20:01:01.243Z,1.69
2022-12-11T20:03:28.463Z,1.57
2022-12-11T20:06:08.244Z,1.54
2022-12-11T20:08:44.622Z,1.51
2022-12-11T20:11:17.641Z,1.66
2022-12-11T20:13:46.697Z,1.61
2022-12-11T20:16:14.907Z,1.54
2022-12-11T20:18:41.921Z,1.65
2022-12-11T20:21:12.840Z,1.56
2022-12-11T20:23:42.193Z,1.71
2022-12-11T20:26:15.080Z,1.70
2022-12-11T20:28:43.901Z,1.79
2022-12-11T20:31:19.681Z,1.84
2022-12-11T20:33:49.329Z,1.81
2022-12-11T20:36:17.758Z,1.74
2022-12-11T20:38:45.317Z,1.70
2022-12-11T20:41:15.024Z,1.75
2022-12-11T20:43:42.786Z,1.89
2022-12-11T20:46:12.884Z,1.91
2022-12-11T20:48:42.557Z,1.96
2022-12-11T20:51:12.367Z,1.97
2022-12-11T20:53:39.945Z,1.93
2022-12-11T20:56:12.403Z,2.05
2022-12-11T20:58:40.406Z,1.96
2022-12-11T21:01:12.969Z,2.00
2022-12-11T21:03:42.134Z,2.01
2022-12-11T21:06:20.507Z,2.01
2022-12-11T21:08:47.476Z,2.02
2022-12-11T21:11:14.444Z,2.00
2022-12-11T21:13:41.474Z,2.04
2022-12-11T21:16:09.908Z,2.11
2022-12-11T21:18:37.041Z,2.13
2022-12-11T21:21:04.595Z,2.15
2022-12-11T21:23:31.870Z,2.17
2022-12-11T21:25:59.092Z,2.14
2022-12-11T21:28:30.571Z,2.24
2022-12-11T21:31:06.404Z,2.17
2022-12-11T21:33:33.561Z,2.21
2022-12-11T21:36:00.738Z,2.14
2022-12-11T21:38:28.445Z,2.21
2022-12-11T21:40:55.570Z,2.16
2022-12-11T21:43:23.224Z,2.28
2022-12-11T21:46:06.495Z,2.31
2022-12-11T21:48:33.774Z,2.33
2022-12-11T21:51:18.937Z,2.37
2022-12-11T21:53:46.462Z,2.36
2022-12-11T21:56:17.981Z,2.31
2022-12-11T21:58:45.451Z,2.34
2022-12-11T22:01:24.025Z,2.43
2022-12-11T22:03:53.111Z,2.46
2022-12-11T22:06:20.821Z,2.44
2022-12-11T22:08:49.273Z,2.42
2022-12-11T22:11:19.006Z,2.45
2022-12-11T22:13:46.300Z,2.39
2022-12-11T22:16:13.252Z,2.43
2022-12-11T22:18:40.256Z,2.37
2022-12-11T22:21:07.397Z,2.37
2022-12-11T22:23:34.636Z,2.29
2022-12-11T22:26:01.512Z,2.44
2022-12-11T22:28:28.432Z,2.45
2022-12-11T22:30:55.405Z,2.48
2022-12-11T22:33:22.370Z,2.43
2022-12-11T22:36:00.161Z,2.32
2022-12-11T22:38:27.071Z,2.38
2022-12-11T22:40:54.897Z,2.41
2022-12-11T22:43:22.218Z,2.50
2022-12-11T22:45:49.396Z,2.44
2022-12-11T22:48:16.367Z,2.43
2022-12-11T22:50:44.469Z,2.51
2022-12-11T22:53:11.782Z,2.58
2022-12-11T22:55:40.075Z,2.59
2022-12-11T22:58:07.421Z,2.59
2022-12-11T23:00:34.837Z,2.64
2022-12-11T23:03:02.822Z,2.57
2022-12-11T23:05:29.966Z,2.73
2022-12-11T23:07:57.146Z,2.66
2022-12-11T23:10:24.398Z,2.61
2022-12-11T23:12:51.519Z,2.61
2022-12-11T23:15:18.861Z,2.65
2022-12-11T23:17:46.010Z,2.61
2022-12-11T23:20:12.959Z,2.61
2022-12-11T23:22:40.214Z,2.77
2022-12-11T23:25:07.624Z,2.74
2022-12-11T23:27:34.578Z,2.79
2022-12-11T23:30:01.578Z,2.77
2022-12-11T23:32:30.638Z,2.85
2022-12-11T23:34:57.551Z,2.88
2022-12-11T23:37:24.693Z,2.93
2022-12-11T23:39:51.632Z,2.93
2022-12-11T23:42:18.552Z,2.96
2022-12-11T23:44:45.444Z,2.94
2022-12-11T23:47:12.599Z,2.95
2022-12-11T23:49:39.616Z,2.84
2022-12-11T23:52:06.661Z,2.78
2022-12-11T23:54:33.617Z,2.94
2022-12-11T23:57:00.679Z,2.81
2022-12-11T23:59:27.626Z,2.87
